sensor_id;sensor_type;location;lat;lon;timestamp;noise_LAeq;noise_LA_min;noise_LA_max;noise_LA01;noise_LA95
71020;Laerm;58902;51.436;5.980;2023-10-31T00:00:05;46.08;38.46;59.43;;
71020;Laerm;58902;51.436;5.980;2023-10-31T00:00:16;39.98;37.42;47.34;;
71020;Laerm;58902;51.436;5.980;2023-10-31T00:00:27;39.52;37.15;46.76;;
71020;Laerm;58902;51.436;5.980;2023-10-31T00:00:40;39.83;37.01;46.19;;
71020;Laerm;58902;51.436;5.980;2023-10-31T00:00:50;40.03;37.40;48.00;;
71020;Laerm;58902;51.436;5.980;2023-10-31T00:01:01;39.87;37.88;41.73;;
71020;Laerm;58902;51.436;5.980;2023-10-31T00:01:11;39.24;37.18;42.38;;
71020;Laerm;58902;51.436;5.980;2023-10-31T00:01:21;42.35;35.59;47.20;;
71020;Laerm;58902;51.436;5.980;2023-10-31T00:01:32;47.89;43.68;51.94;;
71020;Laerm;58902;51.436;5.980;2023-10-31T00:01:42;40.63;36.78;45.61;;
71020;Laerm;58902;51.436;5.980;2023-10-31T00:01:52;37.08;34.65;42.26;;
71020;Laerm;58902;51.436;5.980;2023-10-31T00:02:04;36.10;34.49;40.28;;
71020;Laerm;58902;51.436;5.980;2023-10-31T00:02:14;35.45;33.77;38.64;;
71020;Laerm;58902;51.436;5.980;2023-10-31T00:02:25;34.68;32.78;39.53;;
71020;Laerm;58902;51.436;5.980;2023-10-31T00:02:35;34.54;32.81;40.21;;
71020;Laerm;58902;51.436;5.980;2023-10-31T00:02:45;36.07;33.98;42.56;;
71020;Laerm;58902;51.436;5.980;2023-10-31T00:02:55;37.72;33.96;48.34;;
71020;Laerm;58902;51.436;5.980;2023-10-31T00:03:06;35.33;33.82;38.80;;
71020;Laerm;58902;51.436;5.980;2023-10-31T00:03:16;40.53;34.61;51.36;;
71020;Laerm;58902;51.436;5.980;2023-10-31T00:03:27;37.27;34.07;48.57;;
71020;Laerm;58902;51.436;5.980;2023-10-31T00:03:37;35.87;33.70;39.17;;
71020;Laerm;58902;51.436;5.980;2023-10-31T00:03:47;34.81;33.39;40.95;;
71020;Laerm;58902;51.436;5.980;2023-10-31T00:03:58;33.95;31.82;38.93;;
71020;Laerm;58902;51.436;5.980;2023-10-31T00:04:08;33.78;31.96;41.40;;
71020;Laerm;58902;51.436;5.980;2023-10-31T00:04:18;34.08;32.04;44.17;;
71020;Laerm;58902;51.436;5.980;2023-10-31T00:04:28;32.58;31.09;34.50;;
71020;Laerm;58902;51.436;5.980;2023-10-31T00:04:39;34.32;31.73;36.91;;
71020;Laerm;58902;51.436;5.980;2023-10-31T00:04:49;35.20;32.77;37.70;;
71020;Laerm;58902;51.436;5.980;2023-10-31T00:05:00;37.62;35.81;39.18;;
71020;Laerm;58902;51.436;5.980;2023-10-31T00:05:10;37.63;33.88;44.74;;
71020;Laerm;58902;51.436;5.980;2023-10-31T00:05:20;33.98;31.74;45.54;;
71020;Laerm;58902;51.436;5.980;2023-10-31T00:05:31;33.47;31.72;41.51;;
71020;Laerm;58902;51.436;5.980;2023-10-31T00:05:41;33.63;31.27;43.26;;
71020;Laerm;58902;51.436;5.980;2023-10-31T00:05:52;33.45;30.67;43.31;;
71020;Laerm;58902;51.436;5.980;2023-10-31T00:06:03;31.97;30.45;34.83;;
71020;Laerm;58902;51.436;5.980;2023-10-31T00:06:13;32.42;30.84;35.22;;
71020;Laerm;58902;51.436;5.980;2023-10-31T00:06:23;33.83;31.88;36.05;;
71020;Laerm;58902;51.436;5.980;2023-10-31T00:06:34;34.38;33.26;36.83;;
71020;Laerm;58902;51.436;5.980;2023-10-31T00:06:44;34.54;32.83;41.84;;
71020;Laerm;58902;51.436;5.980;2023-10-31T00:06:55;32.96;31.03;41.00;;
71020;Laerm;58902;51.436;5.980;2023-10-31T00:07:05;33.07;30.97;40.41;;
71020;Laerm;58902;51.436;5.980;2023-10-31T00:07:16;33.49;31.60;40.16;;
71020;Laerm;58902;51.436;5.980;2023-10-31T00:07:26;40.28;33.03;50.15;;
71020;Laerm;58902;51.436;5.980;2023-10-31T00:07:36;37.95;31.60;49.94;;
71020;Laerm;58902;51.436;5.980;2023-10-31T00:07:47;32.96;30.29;41.14;;
71020;Laerm;58902;51.436;5.980;2023-10-31T00:07:58;32.80;30.56;46.26;;
71020;Laerm;58902;51.436;5.980;2023-10-31T00:08:08;32.40;30.26;35.56;;
71020;Laerm;58902;51.436;5.980;2023-10-31T00:08:18;31.85;30.42;34.09;;
71020;Laerm;58902;51.436;5.980;2023-10-31T00:08:29;31.90;30.64;33.90;;
71020;Laerm;58902;51.436;5.980;2023-10-31T00:08:39;32.20;30.97;33.93;;
71020;Laerm;58902;51.436;5.980;2023-10-31T00:08:49;42.01;30.87;48.46;;
71020;Laerm;58902;51.436;5.980;2023-10-31T00:09:00;42.40;33.57;50.13;;
71020;Laerm;58902;51.436;5.980;2023-10-31T00:09:10;36.70;32.70;39.67;;
71020;Laerm;58902;51.436;5.980;2023-10-31T00:09:21;36.11;32.79;39.78;;
71020;Laerm;58902;51.436;5.980;2023-10-31T00:09:31;38.24;35.13;40.78;;
71020;Laerm;58902;51.436;5.980;2023-10-31T00:09:41;67.37;37.81;76.85;;
71020;Laerm;58902;51.436;5.980;2023-10-31T00:09:52;74.29;69.16;80.23;;
71020;Laerm;58902;51.436;5.980;2023-10-31T00:10:02;75.31;71.15;80.25;;
71020;Laerm;58902;51.436;5.980;2023-10-31T00:10:13;65.83;37.14;80.57;;
71020;Laerm;58902;51.436;5.980;2023-10-31T00:10:23;34.46;31.20;39.62;;
71020;Laerm;58902;51.436;5.980;2023-10-31T00:10:33;31.62;30.37;34.28;;
71020;Laerm;58902;51.436;5.980;2023-10-31T00:10:44;31.73;29.94;33.86;;
71020;Laerm;58902;51.436;5.980;2023-10-31T00:10:54;31.92;30.28;39.75;;
71020;Laerm;58902;51.436;5.980;2023-10-31T00:11:05;31.14;29.91;36.96;;
71020;Laerm;58902;51.436;5.980;2023-10-31T00:11:15;31.33;29.79;34.73;;
71020;Laerm;58902;51.436;5.980;2023-10-31T00:11:26;31.99;30.62;34.11;;
71020;Laerm;58902;51.436;5.980;2023-10-31T00:11:36;31.49;29.56;33.53;;
71020;Laerm;58902;51.436;5.980;2023-10-31T00:11:47;31.57;29.90;41.35;;
71020;Laerm;58902;51.436;5.980;2023-10-31T00:11:58;32.06;30.17;34.17;;
71020;Laerm;58902;51.436;5.980;2023-10-31T00:12:08;31.61;29.56;39.91;;
71020;Laerm;58902;51.436;5.980;2023-10-31T00:12:18;31.88;30.40;33.67;;
71020;Laerm;58902;51.436;5.980;2023-10-31T00:12:29;31.84;29.89;37.31;;
71020;Laerm;58902;51.436;5.980;2023-10-31T00:12:39;31.07;29.40;35.10;;
71020;Laerm;58902;51.436;5.980;2023-10-31T00:12:50;31.22;29.66;37.72;;
71020;Laerm;58902;51.436;5.980;2023-10-31T00:13:00;32.01;30.23;33.45;;
71020;Laerm;58902;51.436;5.980;2023-10-31T00:13:10;31.68;30.31;33.26;;
71020;Laerm;58902;51.436;5.980;2023-10-31T00:13:21;32.82;31.36;34.08;;
71020;Laerm;58902;51.436;5.980;2023-10-31T00:13:32;34.87;32.03;36.72;;
71020;Laerm;58902;51.436;5.980;2023-10-31T00:13:42;33.22;30.97;36.55;;
71020;Laerm;58902;51.436;5.980;2023-10-31T00:13:52;32.11;30.57;34.12;;
71020;Laerm;58902;51.436;5.980;2023-10-31T00:14:03;31.53;30.22;39.22;;
71020;Laerm;58902;51.436;5.980;2023-10-31T00:14:13;31.94;30.05;36.91;;
71020;Laerm;58902;51.436;5.980;2023-10-31T00:14:24;31.53;29.69;39.25;;
71020;Laerm;58902;51.436;5.980;2023-10-31T00:14:34;31.37;29.62;44.22;;
71020;Laerm;58902;51.436;5.980;2023-10-31T00:14:44;31.98;30.35;35.04;;
71020;Laerm;58902;51.436;5.980;2023-10-31T00:14:55;33.42;31.60;39.40;;
71020;Laerm;58902;51.436;5.980;2023-10-31T00:15:05;32.20;31.07;38.15;;
71020;Laerm;58902;51.436;5.980;2023-10-31T00:15:15;33.07;31.17;35.34;;
71020;Laerm;58902;51.436;5.980;2023-10-31T00:15:26;34.80;32.15;37.53;;
71020;Laerm;58902;51.436;5.980;2023-10-31T00:15:37;33.55;32.11;36.05;;
71020;Laerm;58902;51.436;5.980;2023-10-31T00:15:47;33.16;31.36;35.95;;
71020;Laerm;58902;51.436;5.980;2023-10-31T00:15:57;33.54;31.70;38.37;;
71020;Laerm;58902;51.436;5.980;2023-10-31T00:16:08;33.31;30.67;42.70;;
71020;Laerm;58902;51.436;5.980;2023-10-31T00:16:18;32.06;29.69;41.21;;
71020;Laerm;58902;51.436;5.980;2023-10-31T00:16:28;31.15;29.64;33.53;;
71020;Laerm;58902;51.436;5.980;2023-10-31T00:16:39;31.04;29.72;37.87;;
71020;Laerm;58902;51.436;5.980;2023-10-31T00:16:52;30.91;29.37;32.60;;
71020;Laerm;58902;51.436;5.980;2023-10-31T00:17:02;30.65;29.36;32.79;;
71020;Laerm;58902;51.436;5.980;2023-10-31T00:17:13;30.65;29.37;36.70;;
71020;Laerm;58902;51.436;5.980;2023-10-31T00:17:23;30.53;28.98;40.39;;
71020;Laerm;58902;51.436;5.980;2023-10-31T00:17:34;31.44;30.38;32.56;;
71020;Laerm;58902;51.436;5.980;2023-10-31T00:17:44;30.93;29.88;33.61;;
71020;Laerm;58902;51.436;5.980;2023-10-31T00:17:54;32.30;30.22;39.75;;
71020;Laerm;58902;51.436;5.980;2023-10-31T00:18:04;31.32;30.00;36.93;;
71020;Laerm;58902;51.436;5.980;2023-10-31T00:18:15;31.67;30.47;36.22;;
71020;Laerm;58902;51.436;5.980;2023-10-31T00:18:25;33.09;31.79;34.24;;
71020;Laerm;58902;51.436;5.980;2023-10-31T00:18:35;34.08;31.88;35.61;;
71020;Laerm;58902;51.436;5.980;2023-10-31T00:18:46;33.94;32.61;35.69;;
71020;Laerm;58902;51.436;5.980;2023-10-31T00:18:56;34.45;32.77;40.54;;
71020;Laerm;58902;51.436;5.980;2023-10-31T00:19:07;33.12;31.52;38.73;;
71020;Laerm;58902;51.436;5.980;2023-10-31T00:19:17;32.90;31.05;35.40;;
71020;Laerm;58902;51.436;5.980;2023-10-31T00:19:27;34.86;31.36;38.74;;
71020;Laerm;58902;51.436;5.980;2023-10-31T00:19:38;35.57;33.08;37.55;;
71020;Laerm;58902;51.436;5.980;2023-10-31T00:19:48;33.43;31.52;37.21;;
71020;Laerm;58902;51.436;5.980;2023-10-31T00:19:58;33.45;31.51;36.14;;
71020;Laerm;58902;51.436;5.980;2023-10-31T00:20:09;34.16;32.04;36.24;;
71020;Laerm;58902;51.436;5.980;2023-10-31T00:20:22;32.91;31.09;34.73;;
71020;Laerm;58902;51.436;5.980;2023-10-31T00:20:32;32.26;30.29;34.92;;
71020;Laerm;58902;51.436;5.980;2023-10-31T00:20:43;35.69;31.11;38.50;;
71020;Laerm;58902;51.436;5.980;2023-10-31T00:20:53;42.90;33.82;49.55;;
71020;Laerm;58902;51.436;5.980;2023-10-31T00:21:03;42.88;35.23;48.76;;
71020;Laerm;58902;51.436;5.980;2023-10-31T00:21:14;36.17;32.42;39.30;;
71020;Laerm;58902;51.436;5.980;2023-10-31T00:21:24;36.97;34.13;39.77;;
71020;Laerm;58902;51.436;5.980;2023-10-31T00:21:34;37.96;34.84;40.26;;
71020;Laerm;58902;51.436;5.980;2023-10-31T00:21:45;69.90;37.32;77.81;;
71020;Laerm;58902;51.436;5.980;2023-10-31T00:21:55;74.21;69.93;81.10;;
71020;Laerm;58902;51.436;5.980;2023-10-31T00:22:06;73.78;68.51;81.11;;
71020;Laerm;58902;51.436;5.980;2023-10-31T00:22:16;61.17;39.04;75.36;;
71020;Laerm;58902;51.436;5.980;2023-10-31T00:22:27;37.43;31.81;42.46;;
71020;Laerm;58902;51.436;5.980;2023-10-31T00:22:38;32.01;30.55;34.80;;
71020;Laerm;58902;51.436;5.980;2023-10-31T00:22:48;31.59;30.45;33.61;;
71020;Laerm;58902;51.436;5.980;2023-10-31T00:22:58;31.35;30.13;34.28;;
71020;Laerm;58902;51.436;5.980;2023-10-31T00:23:08;31.59;30.29;37.26;;
71020;Laerm;58902;51.436;5.980;2023-10-31T00:23:19;31.75;30.43;38.99;;
71020;Laerm;58902;51.436;5.980;2023-10-31T00:23:29;32.10;30.35;34.28;;
71020;Laerm;58902;51.436;5.980;2023-10-31T00:23:43;33.40;31.11;35.53;;
71020;Laerm;58902;51.436;5.980;2023-10-31T00:23:54;33.02;30.74;35.15;;
71020;Laerm;58902;51.436;5.980;2023-10-31T00:24:04;31.98;30.91;33.39;;
71020;Laerm;58902;51.436;5.980;2023-10-31T00:24:15;31.87;30.46;35.11;;
71020;Laerm;58902;51.436;5.980;2023-10-31T00:24:25;32.89;30.90;39.27;;
71020;Laerm;58902;51.436;5.980;2023-10-31T00:24:36;34.53;31.52;44.00;;
71020;Laerm;58902;51.436;5.980;2023-10-31T00:24:46;32.14;30.18;40.44;;
71020;Laerm;58902;51.436;5.980;2023-10-31T00:24:56;33.67;30.90;39.20;;
71020;Laerm;58902;51.436;5.980;2023-10-31T00:25:07;31.84;29.98;35.53;;
71020;Laerm;58902;51.436;5.980;2023-10-31T00:25:17;31.45;29.87;32.79;;
71020;Laerm;58902;51.436;5.980;2023-10-31T00:25:27;32.59;31.27;35.85;;
71020;Laerm;58902;51.436;5.980;2023-10-31T00:25:38;32.85;31.59;34.39;;
71020;Laerm;58902;51.436;5.980;2023-10-31T00:25:48;33.29;31.73;40.07;;
71020;Laerm;58902;51.436;5.980;2023-10-31T00:25:58;34.56;31.89;42.87;;
71020;Laerm;58902;51.436;5.980;2023-10-31T00:26:09;32.67;31.10;39.85;;
71020;Laerm;58902;51.436;5.980;2023-10-31T00:26:20;32.81;30.58;35.31;;
71020;Laerm;58902;51.436;5.980;2023-10-31T00:26:30;34.37;31.72;36.52;;
71020;Laerm;58902;51.436;5.980;2023-10-31T00:26:40;32.70;31.04;37.11;;
71020;Laerm;58902;51.436;5.980;2023-10-31T00:26:51;32.39;31.24;33.79;;
71020;Laerm;58902;51.436;5.980;2023-10-31T00:27:01;32.38;30.96;34.81;;
71020;Laerm;58902;51.436;5.980;2023-10-31T00:27:11;32.70;31.24;35.24;;
71020;Laerm;58902;51.436;5.980;2023-10-31T00:27:23;31.66;30.40;33.28;;
71020;Laerm;58902;51.436;5.980;2023-10-31T00:27:33;31.63;29.99;36.06;;
71020;Laerm;58902;51.436;5.980;2023-10-31T00:27:43;32.08;30.39;36.77;;
71020;Laerm;58902;51.436;5.980;2023-10-31T00:27:54;32.10;30.35;38.95;;
71020;Laerm;58902;51.436;5.980;2023-10-31T00:28:04;32.24;30.90;34.06;;
71020;Laerm;58902;51.436;5.980;2023-10-31T00:28:14;32.92;31.61;36.09;;
71020;Laerm;58902;51.436;5.980;2023-10-31T00:28:25;33.27;31.43;35.87;;
71020;Laerm;58902;51.436;5.980;2023-10-31T00:28:35;34.87;32.99;39.02;;
71020;Laerm;58902;51.436;5.980;2023-10-31T00:28:45;34.32;31.44;36.46;;
71020;Laerm;58902;51.436;5.980;2023-10-31T00:28:56;32.94;31.10;34.60;;
71020;Laerm;58902;51.436;5.980;2023-10-31T00:29:06;33.18;31.31;39.48;;
71020;Laerm;58902;51.436;5.980;2023-10-31T00:29:16;32.14;29.95;33.86;;
71020;Laerm;58902;51.436;5.980;2023-10-31T00:29:27;32.80;30.90;34.29;;
71020;Laerm;58902;51.436;5.980;2023-10-31T00:29:37;32.64;30.82;34.56;;
71020;Laerm;58902;51.436;5.980;2023-10-31T00:29:48;33.18;31.15;41.45;;
71020;Laerm;58902;51.436;5.980;2023-10-31T00:29:58;40.42;33.17;56.05;;
71020;Laerm;58902;51.436;5.980;2023-10-31T00:30:09;39.22;33.23;52.28;;
71020;Laerm;58902;51.436;5.980;2023-10-31T00:30:19;34.82;32.81;40.24;;
71020;Laerm;58902;51.436;5.980;2023-10-31T00:30:30;34.25;31.82;40.31;;
71020;Laerm;58902;51.436;5.980;2023-10-31T00:30:40;35.62;32.43;43.14;;
71020;Laerm;58902;51.436;5.980;2023-10-31T00:30:50;35.38;32.28;42.70;;
71020;Laerm;58902;51.436;5.980;2023-10-31T00:31:01;34.71;32.16;41.90;;
71020;Laerm;58902;51.436;5.980;2023-10-31T00:31:11;34.91;33.17;37.03;;
71020;Laerm;58902;51.436;5.980;2023-10-31T00:31:21;34.90;33.17;37.15;;
71020;Laerm;58902;51.436;5.980;2023-10-31T00:31:32;34.48;32.38;37.38;;
71020;Laerm;58902;51.436;5.980;2023-10-31T00:31:44;33.94;31.36;40.73;;
71020;Laerm;58902;51.436;5.980;2023-10-31T00:31:55;35.81;31.20;49.70;;
71020;Laerm;58902;51.436;5.980;2023-10-31T00:32:05;33.68;31.35;45.20;;
71020;Laerm;58902;51.436;5.980;2023-10-31T00:32:16;34.18;32.39;37.68;;
71020;Laerm;58902;51.436;5.980;2023-10-31T00:32:26;32.66;31.10;34.15;;
71020;Laerm;58902;51.436;5.980;2023-10-31T00:32:37;32.50;31.13;33.97;;
71020;Laerm;58902;51.436;5.980;2023-10-31T00:32:47;32.33;30.40;36.80;;
71020;Laerm;58902;51.436;5.980;2023-10-31T00:32:57;31.21;29.68;35.99;;
71020;Laerm;58902;51.436;5.980;2023-10-31T00:33:08;31.20;30.03;33.42;;
71020;Laerm;58902;51.436;5.980;2023-10-31T00:33:18;31.24;29.96;32.50;;
71020;Laerm;58902;51.436;5.980;2023-10-31T00:33:28;31.03;29.74;34.48;;
71020;Laerm;58902;51.436;5.980;2023-10-31T00:33:39;30.71;29.59;32.71;;
71020;Laerm;58902;51.436;5.980;2023-10-31T00:33:52;31.10;29.33;33.05;;
71020;Laerm;58902;51.436;5.980;2023-10-31T00:34:02;33.03;30.57;35.57;;
71020;Laerm;58902;51.436;5.980;2023-10-31T00:34:13;35.11;32.79;36.61;;
71020;Laerm;58902;51.436;5.980;2023-10-31T00:34:23;34.78;33.18;37.50;;
71020;Laerm;58902;51.436;5.980;2023-10-31T00:34:34;33.60;31.75;37.68;;
71020;Laerm;58902;51.436;5.980;2023-10-31T00:34:44;33.24;31.80;34.51;;
71020;Laerm;58902;51.436;5.980;2023-10-31T00:34:54;32.77;31.09;34.77;;
71020;Laerm;58902;51.436;5.980;2023-10-31T00:35:05;33.59;31.76;35.15;;
71020;Laerm;58902;51.436;5.980;2023-10-31T00:35:15;32.74;31.02;33.97;;
71020;Laerm;58902;51.436;5.980;2023-10-31T00:35:26;33.74;31.61;36.58;;
71020;Laerm;58902;51.436;5.980;2023-10-31T00:35:36;34.85;32.78;37.32;;
71020;Laerm;58902;51.436;5.980;2023-10-31T00:35:47;36.08;32.65;48.56;;
71020;Laerm;58902;51.436;5.980;2023-10-31T00:35:58;33.67;31.98;39.33;;
71020;Laerm;58902;51.436;5.980;2023-10-31T00:36:08;34.39;32.61;41.51;;
71020;Laerm;58902;51.436;5.980;2023-10-31T00:36:18;43.46;37.00;48.65;;
71020;Laerm;58902;51.436;5.980;2023-10-31T00:36:29;39.90;33.68;49.65;;
71020;Laerm;58902;51.436;5.980;2023-10-31T00:36:39;37.60;33.65;40.30;;
71020;Laerm;58902;51.436;5.980;2023-10-31T00:36:50;38.01;34.89;42.43;;
71020;Laerm;58902;51.436;5.980;2023-10-31T00:37:00;40.35;36.47;50.10;;
71020;Laerm;58902;51.436;5.980;2023-10-31T00:37:10;71.97;41.06;77.81;;
71020;Laerm;58902;51.436;5.980;2023-10-31T00:37:21;75.39;71.45;78.58;;
71020;Laerm;58902;51.436;5.980;2023-10-31T00:37:31;76.36;72.69;79.84;;
71020;Laerm;58902;51.436;5.980;2023-10-31T00:37:41;64.35;40.37;77.60;;
71020;Laerm;58902;51.436;5.980;2023-10-31T00:37:52;38.12;32.84;43.65;;
71020;Laerm;58902;51.436;5.980;2023-10-31T00:38:02;32.88;30.94;36.02;;
71020;Laerm;58902;51.436;5.980;2023-10-31T00:38:12;32.01;30.01;40.05;;
71020;Laerm;58902;51.436;5.980;2023-10-31T00:38:23;31.23;29.54;38.72;;
71020;Laerm;58902;51.436;5.980;2023-10-31T00:38:33;30.87;29.33;32.93;;
71020;Laerm;58902;51.436;5.980;2023-10-31T00:38:43;31.08;29.27;34.45;;
71020;Laerm;58902;51.436;5.980;2023-10-31T00:38:54;31.03;29.88;37.00;;
71020;Laerm;58902;51.436;5.980;2023-10-31T00:39:04;30.57;29.38;39.81;;
71020;Laerm;58902;51.436;5.980;2023-10-31T00:39:14;30.15;28.93;37.38;;
71020;Laerm;58902;51.436;5.980;2023-10-31T00:39:25;30.11;28.96;31.75;;
71020;Laerm;58902;51.436;5.980;2023-10-31T00:39:35;30.18;28.68;32.67;;
71020;Laerm;58902;51.436;5.980;2023-10-31T00:39:45;30.22;29.16;31.61;;
71020;Laerm;58902;51.436;5.980;2023-10-31T00:39:56;31.50;29.91;32.83;;
71020;Laerm;58902;51.436;5.980;2023-10-31T00:40:06;32.44;29.23;39.52;;
71020;Laerm;58902;51.436;5.980;2023-10-31T00:40:17;34.94;32.65;37.42;;
71020;Laerm;58902;51.436;5.980;2023-10-31T00:40:28;33.90;31.27;49.39;;
71020;Laerm;58902;51.436;5.980;2023-10-31T00:40:38;32.17;30.62;33.57;;
71020;Laerm;58902;51.436;5.980;2023-10-31T00:40:48;32.24;30.85;34.20;;
71020;Laerm;58902;51.436;5.980;2023-10-31T00:40:59;30.61;29.35;33.66;;
71020;Laerm;58902;51.436;5.980;2023-10-31T00:41:09;32.56;29.69;41.98;;
71020;Laerm;58902;51.436;5.980;2023-10-31T00:41:19;35.47;29.94;47.55;;
71020;Laerm;58902;51.436;5.980;2023-10-31T00:41:30;30.52;29.43;33.67;;
71020;Laerm;58902;51.436;5.980;2023-10-31T00:41:43;30.77;29.39;38.78;;
71020;Laerm;58902;51.436;5.980;2023-10-31T00:41:54;30.56;29.33;32.21;;
71020;Laerm;58902;51.436;5.980;2023-10-31T00:42:05;30.55;29.32;32.55;;
71020;Laerm;58902;51.436;5.980;2023-10-31T00:42:15;31.00;29.54;32.19;;
71020;Laerm;58902;51.436;5.980;2023-10-31T00:42:26;30.90;29.41;42.76;;
71020;Laerm;58902;51.436;5.980;2023-10-31T00:42:37;30.28;29.14;31.80;;
71020;Laerm;58902;51.436;5.980;2023-10-31T00:42:47;30.47;29.24;31.92;;
71020;Laerm;58902;51.436;5.980;2023-10-31T00:42:57;30.84;29.64;32.19;;
71020;Laerm;58902;51.436;5.980;2023-10-31T00:43:09;30.29;29.12;31.66;;
71020;Laerm;58902;51.436;5.980;2023-10-31T00:43:19;30.31;28.95;32.29;;
71020;Laerm;58902;51.436;5.980;2023-10-31T00:43:29;30.56;29.30;32.94;;
71020;Laerm;58902;51.436;5.980;2023-10-31T00:43:40;30.09;28.85;31.90;;
71020;Laerm;58902;51.436;5.980;2023-10-31T00:43:50;30.10;28.98;32.24;;
71020;Laerm;58902;51.436;5.980;2023-10-31T00:44:00;30.22;29.19;31.40;;
71020;Laerm;58902;51.436;5.980;2023-10-31T00:44:11;30.55;29.35;32.22;;
71020;Laerm;58902;51.436;5.980;2023-10-31T00:44:21;30.46;28.82;31.86;;
71020;Laerm;58902;51.436;5.980;2023-10-31T00:44:31;30.17;29.01;31.94;;
71020;Laerm;58902;51.436;5.980;2023-10-31T00:44:42;30.15;28.91;34.39;;
71020;Laerm;58902;51.436;5.980;2023-10-31T00:44:52;30.23;29.11;32.11;;
71020;Laerm;58902;51.436;5.980;2023-10-31T00:45:03;30.79;29.45;32.61;;
71020;Laerm;58902;51.436;5.980;2023-10-31T00:45:13;30.83;29.51;32.26;;
71020;Laerm;58902;51.436;5.980;2023-10-31T00:45:23;30.64;29.42;32.69;;
71020;Laerm;58902;51.436;5.980;2023-10-31T00:45:34;30.57;29.31;31.89;;
71020;Laerm;58902;51.436;5.980;2023-10-31T00:45:44;30.42;29.07;31.64;;
71020;Laerm;58902;51.436;5.980;2023-10-31T00:45:54;31.01;29.27;37.59;;
71020;Laerm;58902;51.436;5.980;2023-10-31T00:46:05;31.78;29.70;43.80;;
71020;Laerm;58902;51.436;5.980;2023-10-31T00:46:15;30.23;29.15;31.83;;
71020;Laerm;58902;51.436;5.980;2023-10-31T00:46:25;30.44;29.25;32.55;;
71020;Laerm;58902;51.436;5.980;2023-10-31T00:46:36;31.51;29.71;35.67;;
71020;Laerm;58902;51.436;5.980;2023-10-31T00:46:46;31.16;29.58;37.11;;
71020;Laerm;58902;51.436;5.980;2023-10-31T00:46:56;30.60;29.17;33.26;;
71020;Laerm;58902;51.436;5.980;2023-10-31T00:47:07;30.25;29.09;32.06;;
71020;Laerm;58902;51.436;5.980;2023-10-31T00:47:17;30.56;29.20;31.66;;
71020;Laerm;58902;51.436;5.980;2023-10-31T00:47:27;30.62;29.42;32.94;;
71020;Laerm;58902;51.436;5.980;2023-10-31T00:47:38;33.22;30.62;42.29;;
71020;Laerm;58902;51.436;5.980;2023-10-31T00:47:48;32.22;30.59;36.70;;
71020;Laerm;58902;51.436;5.980;2023-10-31T00:47:58;32.22;31.00;33.93;;
71020;Laerm;58902;51.436;5.980;2023-10-31T00:48:09;31.81;30.61;32.99;;
71020;Laerm;58902;51.436;5.980;2023-10-31T00:48:19;32.04;30.99;33.83;;
71020;Laerm;58902;51.436;5.980;2023-10-31T00:48:30;32.30;30.57;34.25;;
71020;Laerm;58902;51.436;5.980;2023-10-31T00:48:46;34.31;32.04;36.82;;
71020;Laerm;58902;51.436;5.980;2023-10-31T00:48:57;33.66;32.20;35.56;;
71020;Laerm;58902;51.436;5.980;2023-10-31T00:49:07;32.13;30.44;33.59;;
71020;Laerm;58902;51.436;5.980;2023-10-31T00:49:17;30.80;29.70;32.04;;
71020;Laerm;58902;51.436;5.980;2023-10-31T00:49:28;31.02;29.88;32.76;;
71020;Laerm;58902;51.436;5.980;2023-10-31T00:49:38;31.03;29.69;32.69;;
71020;Laerm;58902;51.436;5.980;2023-10-31T00:49:48;30.65;29.14;41.63;;
71020;Laerm;58902;51.436;5.980;2023-10-31T00:49:59;30.72;29.72;32.13;;
71020;Laerm;58902;51.436;5.980;2023-10-31T00:50:09;31.02;29.84;32.41;;
71020;Laerm;58902;51.436;5.980;2023-10-31T00:50:20;30.81;29.28;33.91;;
71020;Laerm;58902;51.436;5.980;2023-10-31T00:50:30;30.45;29.20;31.77;;
71020;Laerm;58902;51.436;5.980;2023-10-31T00:50:41;29.95;28.83;31.78;;
71020;Laerm;58902;51.436;5.980;2023-10-31T00:50:51;30.23;29.22;31.45;;
71020;Laerm;58902;51.436;5.980;2023-10-31T00:51:04;30.99;29.77;32.61;;
71020;Laerm;58902;51.436;5.980;2023-10-31T00:51:14;32.60;30.66;35.42;;
71020;Laerm;58902;51.436;5.980;2023-10-31T00:51:25;33.23;30.88;36.28;;
71020;Laerm;58902;51.436;5.980;2023-10-31T00:51:35;31.48;29.93;36.33;;
71020;Laerm;58902;51.436;5.980;2023-10-31T00:51:45;30.40;29.11;33.13;;
71020;Laerm;58902;51.436;5.980;2023-10-31T00:51:56;30.03;28.63;31.84;;
71020;Laerm;58902;51.436;5.980;2023-10-31T00:52:06;30.63;29.09;32.92;;
71020;Laerm;58902;51.436;5.980;2023-10-31T00:52:17;30.59;29.17;37.13;;
71020;Laerm;58902;51.436;5.980;2023-10-31T00:52:27;30.86;29.23;43.41;;
71020;Laerm;58902;51.436;5.980;2023-10-31T00:52:37;31.09;29.76;34.71;;
71020;Laerm;58902;51.436;5.980;2023-10-31T00:52:48;30.52;29.35;32.88;;
71020;Laerm;58902;51.436;5.980;2023-10-31T00:52:58;30.13;28.70;32.75;;
71020;Laerm;58902;51.436;5.980;2023-10-31T00:53:08;30.11;28.90;32.08;;
71020;Laerm;58902;51.436;5.980;2023-10-31T00:53:25;30.59;28.69;38.83;;
71020;Laerm;58902;51.436;5.980;2023-10-31T00:53:35;30.22;28.71;37.71;;
71020;Laerm;58902;51.436;5.980;2023-10-31T00:53:45;30.77;28.90;44.88;;
71020;Laerm;58902;51.436;5.980;2023-10-31T00:53:56;30.07;28.97;32.09;;
71020;Laerm;58902;51.436;5.980;2023-10-31T00:54:06;30.05;29.01;31.89;;
71020;Laerm;58902;51.436;5.980;2023-10-31T00:54:16;29.98;28.56;31.97;;
71020;Laerm;58902;51.436;5.980;2023-10-31T00:54:27;29.74;28.75;31.51;;
71020;Laerm;58902;51.436;5.980;2023-10-31T00:54:37;29.88;28.48;31.82;;
71020;Laerm;58902;51.436;5.980;2023-10-31T00:54:47;30.16;28.69;36.09;;
71020;Laerm;58902;51.436;5.980;2023-10-31T00:54:58;41.49;28.94;50.65;;
71020;Laerm;58902;51.436;5.980;2023-10-31T00:55:08;41.75;31.46;48.55;;
71020;Laerm;58902;51.436;5.980;2023-10-31T00:55:18;34.79;31.15;37.75;;
71020;Laerm;58902;51.436;5.980;2023-10-31T00:55:29;34.68;30.53;37.48;;
71020;Laerm;58902;51.436;5.980;2023-10-31T00:55:39;34.02;31.45;37.41;;
71020;Laerm;58902;51.436;5.980;2023-10-31T00:55:49;37.87;34.35;40.99;;
71020;Laerm;58902;51.436;5.980;2023-10-31T00:56:00;69.02;37.18;77.25;;
71020;Laerm;58902;51.436;5.980;2023-10-31T00:56:11;71.20;68.03;77.42;;
71020;Laerm;58902;51.436;5.980;2023-10-31T00:56:21;71.33;63.79;78.67;;
71020;Laerm;58902;51.436;5.980;2023-10-31T00:56:32;52.38;34.10;65.72;;
71020;Laerm;58902;51.436;5.980;2023-10-31T00:56:42;33.41;30.18;38.17;;
71020;Laerm;58902;51.436;5.980;2023-10-31T00:56:52;30.59;29.15;32.73;;
71020;Laerm;58902;51.436;5.980;2023-10-31T00:57:03;30.05;28.70;32.08;;
71020;Laerm;58902;51.436;5.980;2023-10-31T00:57:13;29.69;28.55;31.55;;
71020;Laerm;58902;51.436;5.980;2023-10-31T00:57:23;29.58;28.58;31.21;;
71020;Laerm;58902;51.436;5.980;2023-10-31T00:57:34;29.53;28.53;31.12;;
71020;Laerm;58902;51.436;5.980;2023-10-31T00:57:44;29.57;28.45;31.42;;
71020;Laerm;58902;51.436;5.980;2023-10-31T00:57:55;29.66;28.70;32.08;;
71020;Laerm;58902;51.436;5.980;2023-10-31T00:58:05;29.99;28.61;32.36;;
71020;Laerm;58902;51.436;5.980;2023-10-31T00:58:15;30.31;28.29;33.64;;
71020;Laerm;58902;51.436;5.980;2023-10-31T00:58:26;29.68;28.50;31.48;;
71020;Laerm;58902;51.436;5.980;2023-10-31T00:58:36;39.51;29.34;46.98;;
71020;Laerm;58902;51.436;5.980;2023-10-31T00:58:46;42.53;33.18;47.85;;